sensor_id;sensor_type;location;lat;lon;timestamp;P1;durP1;ratioP1;P2;durP2;ratioP2
15681;SDS011;7941;50.966;6.978;2023-03-01T00:02:03;11.00;;;9.70;;
15681;SDS011;7941;50.966;6.978;2023-03-01T00:04:29;11.37;;;9.50;;
15681;SDS011;7941;50.966;6.978;2023-03-01T00:06:56;9.93;;;9.03;;
15681;SDS011;7941;50.966;6.978;2023-03-01T00:09:22;10.77;;;9.27;;
15681;SDS011;7941;50.966;6.978;2023-03-01T00:11:48;10.00;;;9.10;;
15681;SDS011;7941;50.966;6.978;2023-03-01T00:14:15;10.70;;;9.70;;
15681;SDS011;7941;50.966;6.978;2023-03-01T00:16:42;10.87;;;9.33;;
15681;SDS011;7941;50.966;6.978;2023-03-01T00:19:11;10.80;;;9.63;;
15681;SDS011;7941;50.966;6.978;2023-03-01T00:21:37;10.57;;;9.17;;
15681;SDS011;7941;50.966;6.978;2023-03-01T00:24:04;10.23;;;8.70;;
15681;SDS011;7941;50.966;6.978;2023-03-01T00:26:30;10.57;;;9.20;;
15681;SDS011;7941;50.966;6.978;2023-03-01T00:28:57;12.20;;;9.30;;
15681;SDS011;7941;50.966;6.978;2023-03-01T00:31:24;9.93;;;8.93;;
15681;SDS011;7941;50.966;6.978;2023-03-01T00:33:54;10.77;;;9.67;;
15681;SDS011;7941;50.966;6.978;2023-03-01T00:36:22;10.50;;;9.23;;
15681;SDS011;7941;50.966;6.978;2023-03-01T00:38:49;9.40;;;8.43;;
15681;SDS011;7941;50.966;6.978;2023-03-01T00:41:15;9.10;;;8.30;;
15681;SDS011;7941;50.966;6.978;2023-03-01T00:43:42;11.57;;;9.50;;
15681;SDS011;7941;50.966;6.978;2023-03-01T00:46:09;9.93;;;9.03;;
15681;SDS011;7941;50.966;6.978;2023-03-01T00:48:36;9.97;;;9.07;;
15681;SDS011;7941;50.966;6.978;2023-03-01T00:51:06;9.57;;;8.77;;
15681;SDS011;7941;50.966;6.978;2023-03-01T00:53:33;9.93;;;8.93;;
15681;SDS011;7941;50.966;6.978;2023-03-01T00:55:59;11.73;;;9.20;;
15681;SDS011;7941;50.966;6.978;2023-03-01T00:58:26;12.20;;;9.83;;
15681;SDS011;7941;50.966;6.978;2023-03-01T01:00:52;10.03;;;9.10;;
15681;SDS011;7941;50.966;6.978;2023-03-01T01:03:18;12.13;;;9.50;;
15681;SDS011;7941;50.966;6.978;2023-03-01T01:05:45;9.23;;;8.43;;
15681;SDS011;7941;50.966;6.978;2023-03-01T01:08:11;10.30;;;9.20;;
15681;SDS011;7941;50.966;6.978;2023-03-01T01:10:37;10.63;;;9.57;;
15681;SDS011;7941;50.966;6.978;2023-03-01T01:13:04;12.37;;;9.63;;
15681;SDS011;7941;50.966;6.978;2023-03-01T01:15:33;10.33;;;9.33;;
15681;SDS011;7941;50.966;6.978;2023-03-01T01:17:59;10.70;;;9.73;;
15681;SDS011;7941;50.966;6.978;2023-03-01T01:20:26;11.63;;;10.53;;
15681;SDS011;7941;50.966;6.978;2023-03-01T01:22:52;10.53;;;9.60;;
15681;SDS011;7941;50.966;6.978;2023-03-01T01:25:18;11.47;;;9.47;;
15681;SDS011;7941;50.966;6.978;2023-03-01T01:27:44;10.33;;;9.23;;
15681;SDS011;7941;50.966;6.978;2023-03-01T01:30:11;11.13;;;9.97;;
15681;SDS011;7941;50.966;6.978;2023-03-01T01:32:37;10.73;;;9.67;;
15681;SDS011;7941;50.966;6.978;2023-03-01T01:35:04;10.90;;;9.80;;
15681;SDS011;7941;50.966;6.978;2023-03-01T01:37:30;12.03;;;9.67;;
15681;SDS011;7941;50.966;6.978;2023-03-01T01:39:57;10.70;;;9.60;;
15681;SDS011;7941;50.966;6.978;2023-03-01T01:42:24;11.17;;;10.17;;
15681;SDS011;7941;50.966;6.978;2023-03-01T01:47:35;11.87;;;10.67;;
15681;SDS011;7941;50.966;6.978;2023-03-01T01:50:02;10.60;;;9.50;;
15681;SDS011;7941;50.966;6.978;2023-03-01T01:52:34;10.60;;;9.63;;
15681;SDS011;7941;50.966;6.978;2023-03-01T01:57:36;11.93;;;10.83;;
15681;SDS011;7941;50.966;6.978;2023-03-01T02:00:07;12.20;;;10.97;;
15681;SDS011;7941;50.966;6.978;2023-03-01T02:02:34;12.10;;;10.97;;
15681;SDS011;7941;50.966;6.978;2023-03-01T02:05:09;12.07;;;10.63;;
15681;SDS011;7941;50.966;6.978;2023-03-01T02:07:37;11.13;;;10.10;;
15681;SDS011;7941;50.966;6.978;2023-03-01T02:10:04;11.53;;;10.43;;
15681;SDS011;7941;50.966;6.978;2023-03-01T02:12:30;10.20;;;9.30;;
15681;SDS011;7941;50.966;6.978;2023-03-01T02:14:57;11.23;;;10.20;;
15681;SDS011;7941;50.966;6.978;2023-03-01T02:17:23;12.07;;;10.93;;
15681;SDS011;7941;50.966;6.978;2023-03-01T02:22:34;12.10;;;10.87;;
15681;SDS011;7941;50.966;6.978;2023-03-01T02:27:30;12.43;;;11.13;;
15681;SDS011;7941;50.966;6.978;2023-03-01T02:29:58;14.57;;;12.47;;
15681;SDS011;7941;50.966;6.978;2023-03-01T02:32:24;13.07;;;11.77;;
15681;SDS011;7941;50.966;6.978;2023-03-01T02:34:53;14.73;;;12.03;;
15681;SDS011;7941;50.966;6.978;2023-03-01T02:37:20;13.93;;;12.53;;
15681;SDS011;7941;50.966;6.978;2023-03-01T02:39:50;13.63;;;12.30;;
15681;SDS011;7941;50.966;6.978;2023-03-01T02:42:21;13.10;;;11.80;;
15681;SDS011;7941;50.966;6.978;2023-03-01T02:44:51;13.47;;;11.93;;
15681;SDS011;7941;50.966;6.978;2023-03-01T02:47:19;12.77;;;11.53;;
15681;SDS011;7941;50.966;6.978;2023-03-01T02:49:45;13.13;;;10.90;;
15681;SDS011;7941;50.966;6.978;2023-03-01T02:57:12;12.07;;;10.77;;
15681;SDS011;7941;50.966;6.978;2023-03-01T02:59:39;12.93;;;11.67;;
15681;SDS011;7941;50.966;6.978;2023-03-01T03:02:06;11.10;;;10.07;;
15681;SDS011;7941;50.966;6.978;2023-03-01T03:04:32;11.87;;;10.83;;
15681;SDS011;7941;50.966;6.978;2023-03-01T03:06:58;13.07;;;10.87;;
15681;SDS011;7941;50.966;6.978;2023-03-01T03:09:24;11.57;;;10.53;;
15681;SDS011;7941;50.966;6.978;2023-03-01T03:11:51;12.10;;;10.93;;
15681;SDS011;7941;50.966;6.978;2023-03-01T03:14:17;12.03;;;10.83;;
15681;SDS011;7941;50.966;6.978;2023-03-01T03:16:48;12.17;;;10.87;;
15681;SDS011;7941;50.966;6.978;2023-03-01T03:19:15;12.43;;;11.23;;
15681;SDS011;7941;50.966;6.978;2023-03-01T03:21:42;12.00;;;10.90;;
15681;SDS011;7941;50.966;6.978;2023-03-01T03:24:08;13.10;;;11.10;;
15681;SDS011;7941;50.966;6.978;2023-03-01T03:26:34;12.20;;;11.10;;
15681;SDS011;7941;50.966;6.978;2023-03-01T03:29:00;12.93;;;11.73;;
15681;SDS011;7941;50.966;6.978;2023-03-01T03:31:27;11.70;;;10.63;;
15681;SDS011;7941;50.966;6.978;2023-03-01T03:33:53;12.93;;;11.70;;
15681;SDS011;7941;50.966;6.978;2023-03-01T03:36:21;12.23;;;11.13;;
15681;SDS011;7941;50.966;6.978;2023-03-01T03:38:47;13.57;;;11.37;;
15681;SDS011;7941;50.966;6.978;2023-03-01T03:41:14;13.80;;;12.43;;
15681;SDS011;7941;50.966;6.978;2023-03-01T03:43:40;12.20;;;11.17;;
15681;SDS011;7941;50.966;6.978;2023-03-01T03:46:08;12.87;;;11.67;;
15681;SDS011;7941;50.966;6.978;2023-03-01T03:48:44;12.63;;;11.30;;
15681;SDS011;7941;50.966;6.978;2023-03-01T03:51:11;15.27;;;13.33;;
15681;SDS011;7941;50.966;6.978;2023-03-01T03:53:38;14.40;;;12.90;;
15681;SDS011;7941;50.966;6.978;2023-03-01T03:56:04;14.93;;;12.67;;
15681;SDS011;7941;50.966;6.978;2023-03-01T03:58:31;13.93;;;12.53;;
15681;SDS011;7941;50.966;6.978;2023-03-01T04:00:57;14.97;;;13.03;;
15681;SDS011;7941;50.966;6.978;2023-03-01T04:03:23;13.57;;;12.27;;
15681;SDS011;7941;50.966;6.978;2023-03-01T04:05:50;14.67;;;13.10;;
15681;SDS011;7941;50.966;6.978;2023-03-01T04:08:17;15.87;;;14.27;;
15681;SDS011;7941;50.966;6.978;2023-03-01T04:10:46;15.43;;;13.83;;
15681;SDS011;7941;50.966;6.978;2023-03-01T04:13:13;15.90;;;13.63;;
15681;SDS011;7941;50.966;6.978;2023-03-01T04:15:40;14.73;;;13.13;;
15681;SDS011;7941;50.966;6.978;2023-03-01T04:18:08;15.63;;;14.03;;
15681;SDS011;7941;50.966;6.978;2023-03-01T04:20:35;15.43;;;13.20;;
15681;SDS011;7941;50.966;6.978;2023-03-01T04:23:03;15.37;;;13.77;;
15681;SDS011;7941;50.966;6.978;2023-03-01T04:25:37;16.43;;;12.97;;
15681;SDS011;7941;50.966;6.978;2023-03-01T04:28:03;16.13;;;14.43;;
15681;SDS011;7941;50.966;6.978;2023-03-01T04:30:29;16.80;;;14.87;;
15681;SDS011;7941;50.966;6.978;2023-03-01T04:33:10;18.17;;;15.20;;
15681;SDS011;7941;50.966;6.978;2023-03-01T04:35:36;20.13;;;16.37;;
15681;SDS011;7941;50.966;6.978;2023-03-01T04:38:04;22.73;;;17.63;;
15681;SDS011;7941;50.966;6.978;2023-03-01T04:40:30;19.27;;;16.47;;
15681;SDS011;7941;50.966;6.978;2023-03-01T04:42:56;19.77;;;16.17;;
15681;SDS011;7941;50.966;6.978;2023-03-01T04:45:22;17.47;;;15.57;;
15681;SDS011;7941;50.966;6.978;2023-03-01T04:47:49;16.83;;;15.13;;
15681;SDS011;7941;50.966;6.978;2023-03-01T04:50:17;16.47;;;14.53;;
15681;SDS011;7941;50.966;6.978;2023-03-01T04:52:45;20.17;;;15.43;;
15681;SDS011;7941;50.966;6.978;2023-03-01T04:55:12;18.03;;;16.23;;
15681;SDS011;7941;50.966;6.978;2023-03-01T04:57:39;18.17;;;16.27;;
15681;SDS011;7941;50.966;6.978;2023-03-01T05:00:06;20.23;;;17.67;;
15681;SDS011;7941;50.966;6.978;2023-03-01T05:02:52;18.80;;;16.80;;
15681;SDS011;7941;50.966;6.978;2023-03-01T05:05:22;20.73;;;17.37;;
15681;SDS011;7941;50.966;6.978;2023-03-01T05:07:51;19.33;;;17.20;;
15681;SDS011;7941;50.966;6.978;2023-03-01T05:10:17;20.33;;;18.13;;
15681;SDS011;7941;50.966;6.978;2023-03-01T05:12:44;17.80;;;15.00;;
15681;SDS011;7941;50.966;6.978;2023-03-01T05:15:11;18.33;;;16.53;;
15681;SDS011;7941;50.966;6.978;2023-03-01T05:17:37;16.97;;;15.23;;
15681;SDS011;7941;50.966;6.978;2023-03-01T05:20:04;18.10;;;15.53;;
15681;SDS011;7941;50.966;6.978;2023-03-01T05:22:33;18.83;;;16.00;;
15681;SDS011;7941;50.966;6.978;2023-03-01T05:25:00;16.60;;;14.90;;
15681;SDS011;7941;50.966;6.978;2023-03-01T05:27:26;16.20;;;14.50;;
15681;SDS011;7941;50.966;6.978;2023-03-01T05:29:52;17.20;;;15.43;;
15681;SDS011;7941;50.966;6.978;2023-03-01T05:32:18;16.43;;;14.30;;
15681;SDS011;7941;50.966;6.978;2023-03-01T05:34:44;17.30;;;15.50;;
15681;SDS011;7941;50.966;6.978;2023-03-01T05:37:11;15.57;;;14.17;;
15681;SDS011;7941;50.966;6.978;2023-03-01T05:39:38;16.23;;;14.07;;
15681;SDS011;7941;50.966;6.978;2023-03-01T05:42:04;17.27;;;15.10;;
15681;SDS011;7941;50.966;6.978;2023-03-01T05:44:33;17.27;;;15.50;;
15681;SDS011;7941;50.966;6.978;2023-03-01T05:46:59;16.03;;;14.43;;
15681;SDS011;7941;50.966;6.978;2023-03-01T05:49:25;18.07;;;16.17;;
15681;SDS011;7941;50.966;6.978;2023-03-01T05:51:52;17.13;;;15.33;;
15681;SDS011;7941;50.966;6.978;2023-03-01T05:54:19;17.67;;;15.73;;
15681;SDS011;7941;50.966;6.978;2023-03-01T05:56:45;19.70;;;14.80;;
15681;SDS011;7941;50.966;6.978;2023-03-01T05:59:12;16.90;;;15.20;;
15681;SDS011;7941;50.966;6.978;2023-03-01T06:01:38;16.43;;;14.83;;
15681;SDS011;7941;50.966;6.978;2023-03-01T06:04:05;17.90;;;16.10;;
15681;SDS011;7941;50.966;6.978;2023-03-01T06:06:35;18.40;;;14.70;;
15681;SDS011;7941;50.966;6.978;2023-03-01T06:09:03;16.57;;;14.87;;
15681;SDS011;7941;50.966;6.978;2023-03-01T06:11:29;18.37;;;16.47;;
15681;SDS011;7941;50.966;6.978;2023-03-01T06:13:55;17.77;;;15.90;;
15681;SDS011;7941;50.966;6.978;2023-03-01T06:16:21;16.83;;;15.07;;
15681;SDS011;7941;50.966;6.978;2023-03-01T06:18:47;18.33;;;16.43;;
15681;SDS011;7941;50.966;6.978;2023-03-01T06:21:13;16.40;;;14.70;;
15681;SDS011;7941;50.966;6.978;2023-03-01T06:23:40;19.90;;;16.10;;
15681;SDS011;7941;50.966;6.978;2023-03-01T06:26:07;18.67;;;16.70;;
15681;SDS011;7941;50.966;6.978;2023-03-01T06:28:33;17.60;;;15.70;;
15681;SDS011;7941;50.966;6.978;2023-03-01T06:30:59;20.10;;;18.00;;
15681;SDS011;7941;50.966;6.978;2023-03-01T06:33:25;19.93;;;17.83;;
15681;SDS011;7941;50.966;6.978;2023-03-01T06:35:54;19.53;;;17.43;;
15681;SDS011;7941;50.966;6.978;2023-03-01T06:38:21;19.13;;;17.20;;
15681;SDS011;7941;50.966;6.978;2023-03-01T06:40:54;18.30;;;16.50;;
15681;SDS011;7941;50.966;6.978;2023-03-01T06:43:21;20.47;;;17.20;;
15681;SDS011;7941;50.966;6.978;2023-03-01T06:45:48;19.70;;;17.50;;
15681;SDS011;7941;50.966;6.978;2023-03-01T06:48:14;18.93;;;16.80;;
15681;SDS011;7941;50.966;6.978;2023-03-01T06:50:40;22.60;;;17.87;;
15681;SDS011;7941;50.966;6.978;2023-03-01T06:53:07;22.13;;;18.17;;
15681;SDS011;7941;50.966;6.978;2023-03-01T06:55:33;21.57;;;17.77;;
15681;SDS011;7941;50.966;6.978;2023-03-01T06:57:59;24.80;;;18.17;;
15681;SDS011;7941;50.966;6.978;2023-03-01T07:00:26;23.10;;;18.20;;
15681;SDS011;7941;50.966;6.978;2023-03-01T07:02:52;24.53;;;18.40;;
15681;SDS011;7941;50.966;6.978;2023-03-01T07:05:19;23.03;;;19.27;;
15681;SDS011;7941;50.966;6.978;2023-03-01T07:07:45;22.67;;;18.37;;
15681;SDS011;7941;50.966;6.978;2023-03-01T07:10:12;21.53;;;19.17;;
15681;SDS011;7941;50.966;6.978;2023-03-01T07:12:38;22.03;;;19.27;;
15681;SDS011;7941;50.966;6.978;2023-03-01T07:15:06;23.07;;;19.33;;
15681;SDS011;7941;50.966;6.978;2023-03-01T07:17:34;19.83;;;17.67;;
15681;SDS011;7941;50.966;6.978;2023-03-01T07:20:01;20.73;;;18.67;;
15681;SDS011;7941;50.966;6.978;2023-03-01T07:22:27;22.43;;;20.03;;
15681;SDS011;7941;50.966;6.978;2023-03-01T07:24:53;20.37;;;17.10;;
15681;SDS011;7941;50.966;6.978;2023-03-01T07:27:19;21.73;;;19.40;;
15681;SDS011;7941;50.966;6.978;2023-03-01T07:29:45;21.30;;;18.23;;
15681;SDS011;7941;50.966;6.978;2023-03-01T07:32:11;18.67;;;16.87;;
15681;SDS011;7941;50.966;6.978;2023-03-01T07:34:38;22.00;;;19.80;;
15681;SDS011;7941;50.966;6.978;2023-03-01T07:37:04;21.03;;;18.77;;
15681;SDS011;7941;50.966;6.978;2023-03-01T07:39:30;21.70;;;19.40;;
15681;SDS011;7941;50.966;6.978;2023-03-01T07:41:56;22.03;;;19.83;;
15681;SDS011;7941;50.966;6.978;2023-03-01T07:44:22;19.67;;;17.57;;
15681;SDS011;7941;50.966;6.978;2023-03-01T07:46:48;20.80;;;18.57;;
15681;SDS011;7941;50.966;6.978;2023-03-01T07:49:14;21.03;;;18.80;;
15681;SDS011;7941;50.966;6.978;2023-03-01T07:51:40;21.07;;;18.87;;
15681;SDS011;7941;50.966;6.978;2023-03-01T07:54:07;19.27;;;17.37;;
15681;SDS011;7941;50.966;6.978;2023-03-01T07:56:33;20.23;;;17.83;;
15681;SDS011;7941;50.966;6.978;2023-03-01T07:58:59;18.77;;;16.87;;
15681;SDS011;7941;50.966;6.978;2023-03-01T08:01:25;21.17;;;18.90;;
15681;SDS011;7941;50.966;6.978;2023-03-01T08:03:51;20.20;;;17.43;;
15681;SDS011;7941;50.966;6.978;2023-03-01T08:06:18;20.67;;;18.37;;
15681;SDS011;7941;50.966;6.978;2023-03-01T08:08:45;19.50;;;17.50;;
15681;SDS011;7941;50.966;6.978;2023-03-01T08:11:12;20.30;;;18.13;;
15681;SDS011;7941;50.966;6.978;2023-03-01T08:13:39;19.27;;;17.23;;
15681;SDS011;7941;50.966;6.978;2023-03-01T08:16:10;20.97;;;18.80;;
15681;SDS011;7941;50.966;6.978;2023-03-01T08:18:36;19.53;;;17.57;;
15681;SDS011;7941;50.966;6.978;2023-03-01T08:21:07;19.77;;;17.30;;
15681;SDS011;7941;50.966;6.978;2023-03-01T08:23:33;19.33;;;17.50;;
15681;SDS011;7941;50.966;6.978;2023-03-01T08:28:32;21.67;;;17.40;;
15681;SDS011;7941;50.966;6.978;2023-03-01T08:30:58;19.97;;;17.97;;
15681;SDS011;7941;50.966;6.978;2023-03-01T08:33:25;22.17;;;19.30;;
15681;SDS011;7941;50.966;6.978;2023-03-01T08:35:52;20.87;;;18.77;;
15681;SDS011;7941;50.966;6.978;2023-03-01T08:38:19;19.67;;;17.57;;
15681;SDS011;7941;50.966;6.978;2023-03-01T08:40:45;19.00;;;17.00;;
15681;SDS011;7941;50.966;6.978;2023-03-01T08:43:11;19.27;;;17.10;;
15681;SDS011;7941;50.966;6.978;2023-03-01T08:45:37;19.17;;;17.20;;
15681;SDS011;7941;50.966;6.978;2023-03-01T08:48:03;20.63;;;17.30;;
15681;SDS011;7941;50.966;6.978;2023-03-01T08:50:30;17.93;;;16.10;;
15681;SDS011;7941;50.966;6.978;2023-03-01T08:52:56;20.00;;;17.97;;
15681;SDS011;7941;50.966;6.978;2023-03-01T08:55:22;19.50;;;17.60;;
15681;SDS011;7941;50.966;6.978;2023-03-01T08:57:48;19.23;;;17.00;;
15681;SDS011;7941;50.966;6.978;2023-03-01T09:00:14;18.53;;;16.17;;
15681;SDS011;7941;50.966;6.978;2023-03-01T09:02:40;17.83;;;16.07;;
15681;SDS011;7941;50.966;6.978;2023-03-01T09:05:07;17.33;;;15.70;;
15681;SDS011;7941;50.966;6.978;2023-03-01T09:07:33;17.07;;;15.27;;
15681;SDS011;7941;50.966;6.978;2023-03-01T09:09:59;17.17;;;13.90;;
15681;SDS011;7941;50.966;6.978;2023-03-01T09:12:25;16.37;;;14.67;;
15681;SDS011;7941;50.966;6.978;2023-03-01T09:14:52;18.13;;;15.47;;
15681;SDS011;7941;50.966;6.978;2023-03-01T09:17:18;15.90;;;14.23;;
15681;SDS011;7941;50.966;6.978;2023-03-01T09:19:46;15.47;;;13.97;;
15681;SDS011;7941;50.966;6.978;2023-03-01T09:22:13;16.10;;;14.03;;
15681;SDS011;7941;50.966;6.978;2023-03-01T09:24:39;15.73;;;14.07;;
15681;SDS011;7941;50.966;6.978;2023-03-01T09:27:06;15.13;;;12.50;;
15681;SDS011;7941;50.966;6.978;2023-03-01T09:29:36;14.40;;;12.90;;
15681;SDS011;7941;50.966;6.978;2023-03-01T09:32:03;14.37;;;12.83;;
15681;SDS011;7941;50.966;6.978;2023-03-01T09:34:29;15.17;;;12.50;;
15681;SDS011;7941;50.966;6.978;2023-03-01T09:36:56;14.40;;;12.90;;
15681;SDS011;7941;50.966;6.978;2023-03-01T09:39:23;14.93;;;13.43;;
15681;SDS011;7941;50.966;6.978;2023-03-01T09:41:54;12.90;;;11.63;;
15681;SDS011;7941;50.966;6.978;2023-03-01T09:44:32;15.73;;;14.13;;
15681;SDS011;7941;50.966;6.978;2023-03-01T09:47:02;13.70;;;12.30;;
15681;SDS011;7941;50.966;6.978;2023-03-01T09:49:35;14.20;;;12.80;;
15681;SDS011;7941;50.966;6.978;2023-03-01T09:54:52;15.17;;;12.83;;
15681;SDS011;7941;50.966;6.978;2023-03-01T09:57:28;14.83;;;13.13;;
15681;SDS011;7941;50.966;6.978;2023-03-01T09:59:59;13.93;;;12.53;;
15681;SDS011;7941;50.966;6.978;2023-03-01T10:02:38;15.40;;;13.77;;
15681;SDS011;7941;50.966;6.978;2023-03-01T10:07:49;14.03;;;12.57;;
15681;SDS011;7941;50.966;6.978;2023-03-01T10:10:37;14.30;;;12.90;;
15681;SDS011;7941;50.966;6.978;2023-03-01T10:13:13;13.37;;;11.97;;
15681;SDS011;7941;50.966;6.978;2023-03-01T10:15:42;13.67;;;12.27;;
15681;SDS011;7941;50.966;6.978;2023-03-01T10:18:12;15.70;;;13.90;;
15681;SDS011;7941;50.966;6.978;2023-03-01T10:20:48;13.97;;;12.47;;
15681;SDS011;7941;50.966;6.978;2023-03-01T10:23:18;15.17;;;13.60;;
15681;SDS011;7941;50.966;6.978;2023-03-01T10:31:13;13.93;;;12.63;;
15681;SDS011;7941;50.966;6.978;2023-03-01T10:33:40;12.87;;;11.67;;
15681;SDS011;7941;50.966;6.978;2023-03-01T10:36:07;14.43;;;12.97;;
15681;SDS011;7941;50.966;6.978;2023-03-01T10:38:55;13.20;;;11.90;;
15681;SDS011;7941;50.966;6.978;2023-03-01T10:41:22;16.03;;;12.97;;
15681;SDS011;7941;50.966;6.978;2023-03-01T10:46:31;13.37;;;12.07;;
15681;SDS011;7941;50.966;6.978;2023-03-01T10:51:30;14.20;;;12.80;;
15681;SDS011;7941;50.966;6.978;2023-03-01T10:53:56;16.23;;;13.53;;
15681;SDS011;7941;50.966;6.978;2023-03-01T10:56:22;13.77;;;12.27;;
15681;SDS011;7941;50.966;6.978;2023-03-01T10:58:57;14.17;;;12.70;;
15681;SDS011;7941;50.966;6.978;2023-03-01T11:01:26;15.47;;;14.00;;
15681;SDS011;7941;50.966;6.978;2023-03-01T11:06:31;18.57;;;16.37;;
15681;SDS011;7941;50.966;6.978;2023-03-01T11:08:57;16.60;;;13.93;;
15681;SDS011;7941;50.966;6.978;2023-03-01T11:11:38;14.13;;;12.83;;
15681;SDS011;7941;50.966;6.978;2023-03-01T11:14:23;15.40;;;13.80;;
15681;SDS011;7941;50.966;6.978;2023-03-01T11:19:25;14.80;;;13.23;;
15681;SDS011;7941;50.966;6.978;2023-03-01T11:22:07;14.77;;;13.07;;
15681;SDS011;7941;50.966;6.978;2023-03-01T11:24:34;16.33;;;14.33;;
15681;SDS011;7941;50.966;6.978;2023-03-01T11:27:04;13.50;;;12.20;;
15681;SDS011;7941;50.966;6.978;2023-03-01T11:29:32;13.90;;;12.50;;
15681;SDS011;7941;50.966;6.978;2023-03-01T11:32:02;15.10;;;12.13;;
15681;SDS011;7941;50.966;6.978;2023-03-01T11:37:40;12.40;;;11.00;;
15681;SDS011;7941;50.966;6.978;2023-03-01T11:42:50;11.43;;;10.33;;
15681;SDS011;7941;50.966;6.978;2023-03-01T11:45:20;11.07;;;10.07;;
15681;SDS011;7941;50.966;6.978;2023-03-01T11:53:48;11.40;;;10.17;;
15681;SDS011;7941;50.966;6.978;2023-03-01T12:10:44;11.60;;;10.40;;
15681;SDS011;7941;50.966;6.978;2023-03-01T12:13:19;11.47;;;9.30;;
15681;SDS011;7941;50.966;6.978;2023-03-01T12:15:50;10.40;;;9.47;;
15681;SDS011;7941;50.966;6.978;2023-03-01T12:42:50;10.40;;;9.30;;
15681;SDS011;7941;50.966;6.978;2023-03-01T12:47:58;11.10;;;9.67;;
15681;SDS011;7941;50.966;6.978;2023-03-01T12:50:29;9.57;;;8.60;;
15681;SDS011;7941;50.966;6.978;2023-03-01T12:53:01;9.37;;;8.40;;
15681;SDS011;7941;50.966;6.978;2023-03-01T13:00:44;9.23;;;8.40;;
15681;SDS011;7941;50.966;6.978;2023-03-01T13:03:24;8.70;;;7.90;;
15681;SDS011;7941;50.966;6.978;2023-03-01T13:08:20;10.73;;;9.60;;
15681;SDS011;7941;50.966;6.978;2023-03-01T13:11:33;10.40;;;9.40;;
15681;SDS011;7941;50.966;6.978;2023-03-01T13:13:34;9.70;;;8.80;;
15681;SDS011;7941;50.966;6.978;2023-03-01T13:16:21;9.90;;;8.90;;
15681;SDS011;7941;50.966;6.978;2023-03-01T13:18:48;11.40;;;9.07;;
15681;SDS011;7941;50.966;6.978;2023-03-01T13:21:14;10.73;;;9.73;;
15681;SDS011;7941;50.966;6.978;2023-03-01T13:23:54;10.90;;;9.80;;
15681;SDS011;7941;50.966;6.978;2023-03-01T13:26:20;10.53;;;9.47;;
15681;SDS011;7941;50.966;6.978;2023-03-01T13:28:48;11.97;;;10.77;;
15681;SDS011;7941;50.966;6.978;2023-03-01T13:33:41;10.07;;;9.13;;
15681;SDS011;7941;50.966;6.978;2023-03-01T13:36:08;10.43;;;9.40;;
15681;SDS011;7941;50.966;6.978;2023-03-01T13:41:04;10.17;;;9.17;;
15681;SDS011;7941;50.966;6.978;2023-03-01T13:43:40;10.13;;;9.13;;
15681;SDS011;7941;50.966;6.978;2023-03-01T13:48:36;9.23;;;8.43;;
15681;SDS011;7941;50.966;6.978;2023-03-01T13:51:09;9.53;;;8.70;;
15681;SDS011;7941;50.966;6.978;2023-03-01T13:53:36;9.97;;;8.90;;
15681;SDS011;7941;50.966;6.978;2023-03-01T13:56:27;10.20;;;9.03;;
15681;SDS011;7941;50.966;6.978;2023-03-01T13:58:55;9.13;;;8.23;;
15681;SDS011;7941;50.966;6.978;2023-03-01T14:01:28;9.30;;;8.40;;
15681;SDS011;7941;50.966;6.978;2023-03-01T14:03:57;10.40;;;8.00;;
15681;SDS011;7941;50.966;6.978;2023-03-01T14:06:27;9.17;;;7.47;;
15681;SDS011;7941;50.966;6.978;2023-03-01T14:11:56;8.33;;;7.53;;
15681;SDS011;7941;50.966;6.978;2023-03-01T14:19:35;9.90;;;8.90;;
15681;SDS011;7941;50.966;6.978;2023-03-01T14:24:30;8.20;;;7.03;;
15681;SDS011;7941;50.966;6.978;2023-03-01T14:26:58;8.27;;;7.57;;
15681;SDS011;7941;50.966;6.978;2023-03-01T14:29:36;8.50;;;7.70;;
15681;SDS011;7941;50.966;6.978;2023-03-01T14:34:58;9.53;;;8.03;;
15681;SDS011;7941;50.966;6.978;2023-03-01T14:39:52;10.13;;;8.53;;
15681;SDS011;7941;50.966;6.978;2023-03-01T14:42:18;10.23;;;9.17;;
15681;SDS011;7941;50.966;6.978;2023-03-01T14:44:46;8.90;;;8.10;;
15681;SDS011;7941;50.966;6.978;2023-03-01T14:47:23;10.33;;;8.77;;
15681;SDS011;7941;50.966;6.978;2023-03-01T14:49:50;12.50;;;11.10;;
15681;SDS011;7941;50.966;6.978;2023-03-01T14:52:20;9.17;;;7.80;;
15681;SDS011;7941;50.966;6.978;2023-03-01T14:54:48;9.60;;;8.73;;
15681;SDS011;7941;50.966;6.978;2023-03-01T14:57:25;10.57;;;9.43;;
15681;SDS011;7941;50.966;6.978;2023-03-01T14:59:52;11.50;;;9.63;;
15681;SDS011;7941;50.966;6.978;2023-03-01T15:02:21;9.97;;;9.07;;
15681;SDS011;7941;50.966;6.978;2023-03-01T15:05:05;9.53;;;8.53;;
15681;SDS011;7941;50.966;6.978;2023-03-01T15:07:34;10.60;;;8.80;;
15681;SDS011;7941;50.966;6.978;2023-03-01T15:10:03;9.70;;;8.60;;
15681;SDS011;7941;50.966;6.978;2023-03-01T15:12:37;9.63;;;8.73;;
15681;SDS011;7941;50.966;6.978;2023-03-01T15:15:20;8.97;;;8.03;;
15681;SDS011;7941;50.966;6.978;2023-03-01T15:17:48;9.50;;;7.70;;
15681;SDS011;7941;50.966;6.978;2023-03-01T15:20:17;8.93;;;8.03;;
15681;SDS011;7941;50.966;6.978;2023-03-01T15:22:50;10.17;;;8.47;;
15681;SDS011;7941;50.966;6.978;2023-03-01T15:25:18;9.30;;;8.40;;
15681;SDS011;7941;50.966;6.978;2023-03-01T15:27:48;8.80;;;7.90;;
15681;SDS011;7941;50.966;6.978;2023-03-01T15:30:20;9.90;;;8.20;;
15681;SDS011;7941;50.966;6.978;2023-03-01T15:32:47;9.33;;;8.43;;
15681;SDS011;7941;50.966;6.978;2023-03-01T15:40:51;8.53;;;7.77;;
15681;SDS011;7941;50.966;6.978;2023-03-01T15:46:02;9.80;;;8.80;;
15681;SDS011;7941;50.966;6.978;2023-03-01T15:48:29;9.63;;;8.27;;
15681;SDS011;7941;50.966;6.978;2023-03-01T15:50:58;12.10;;;8.27;;
15681;SDS011;7941;50.966;6.978;2023-03-01T15:53:26;9.63;;;8.63;;
15681;SDS011;7941;50.966;6.978;2023-03-01T15:55:53;11.07;;;9.53;;
15681;SDS011;7941;50.966;6.978;2023-03-01T15:58:21;12.13;;;10.43;;
15681;SDS011;7941;50.966;6.978;2023-03-01T16:00:48;12.10;;;9.17;;
15681;SDS011;7941;50.966;6.978;2023-03-01T16:03:16;10.10;;;8.87;;
15681;SDS011;7941;50.966;6.978;2023-03-01T16:05:47;10.43;;;9.20;;
15681;SDS011;7941;50.966;6.978;2023-03-01T16:08:13;15.83;;;13.37;;
15681;SDS011;7941;50.966;6.978;2023-03-01T16:10:40;10.53;;;9.43;;
15681;SDS011;7941;50.966;6.978;2023-03-01T16:13:12;11.83;;;10.00;;
15681;SDS011;7941;50.966;6.978;2023-03-01T16:15:39;11.13;;;8.80;;
15681;SDS011;7941;50.966;6.978;2023-03-01T16:18:05;11.53;;;10.33;;
15681;SDS011;7941;50.966;6.978;2023-03-01T16:20:33;11.80;;;9.87;;
15681;SDS011;7941;50.966;6.978;2023-03-01T16:23:07;14.70;;;8.57;;
15681;SDS011;7941;50.966;6.978;2023-03-01T16:25:34;8.60;;;7.80;;
15681;SDS011;7941;50.966;6.978;2023-03-01T16:28:01;11.07;;;9.07;;
15681;SDS011;7941;50.966;6.978;2023-03-01T16:30:30;10.47;;;8.80;;
15681;SDS011;7941;50.966;6.978;2023-03-01T16:32:56;11.53;;;8.83;;
15681;SDS011;7941;50.966;6.978;2023-03-01T16:35:23;9.97;;;9.00;;
15681;SDS011;7941;50.966;6.978;2023-03-01T16:37:49;9.70;;;8.60;;
15681;SDS011;7941;50.966;6.978;2023-03-01T16:40:19;9.37;;;8.37;;
15681;SDS011;7941;50.966;6.978;2023-03-01T16:42:46;9.37;;;8.47;;
15681;SDS011;7941;50.966;6.978;2023-03-01T16:45:12;10.77;;;8.07;;
15681;SDS011;7941;50.966;6.978;2023-03-01T16:47:39;9.93;;;8.73;;
15681;SDS011;7941;50.966;6.978;2023-03-01T16:50:05;10.40;;;8.77;;
15681;SDS011;7941;50.966;6.978;2023-03-01T16:52:31;11.77;;;10.00;;
15681;SDS011;7941;50.966;6.978;2023-03-01T16:54:59;10.83;;;8.93;;
15681;SDS011;7941;50.966;6.978;2023-03-01T16:57:25;11.33;;;8.93;;
15681;SDS011;7941;50.966;6.978;2023-03-01T16:59:52;8.93;;;7.97;;